Marshfield, Vermont
Current Conditions -  °F | °C
As of 12:18 PM on Friday 28 Nov 2014 (Local Time) from KMPV Reporting Station
Light Snow Light Snow  
Wind Chill: 11°   Ceiling: 3200
Heat Index: 22°   Visibility: 7mi
Dew Point: 14°   Wind: 10mph
Humidity: 72%   Direction: 310°NW
Pressure: 30.06"   Gusts: NA
Location:  44.35°N, 72.35°W
Report Text: KMPV 281718Z AUTO 31009KT 7SM -SN FEW022 OVC032 M06/M10 A3006 RMK AO2 SNB07 P0000 T10561100
Loading
Personal Weather Stations






























Interactive Weather Map New forecast layout! Learn more

10-Day Weather Forecast

Advertisements
Track Severe Weather on mobile